Time;durP1;ratioP1;P1;durP2;ratioP2;P2;SDS_P1;SDS_P2;PMS_P1;PMS_P2;Temp;Humidity;BMP_temperature;BMP_pressure;BME280_temperature;BME280_humidity;BME280_pressure;Samples;Min_cycle;Max_cycle;Signal;HPM_P1;HPM_P2
2022/09/22 00:01:18;;;;;;;4.45;3.30;;;;;;;19.06;49.50;102507.78;5064197;28;20044;-50
2022/09/22 00:03:46;;;;;;;;;;;;;;;19.05;49.37;102503.38;5064746;28;20024;-51
2022/09/22 00:06:12;;;;;;;;;;;;;;;19.04;49.46;102501.66;5064519;28;19908;-51
2022/09/22 00:08:47;;;;;;;;;;;;;;;19.04;49.33;102498.97;5064617;28;20050;-51
2022/09/22 00:11:19;;;;;;;;;;;;;;;19.03;49.08;102498.13;5064999;28;19915;-53
2022/09/22 00:13:46;;;;;;;;;;;;;;;19.03;49.05;102497.25;5063951;28;19959;-51
2022/09/22 00:16:12;;;;;;;;;;;;;;;19.03;49.26;102500.81;5096914;28;19923;-51
2022/09/22 00:18:37;;;;;;;;;;;;;;;19.03;49.26;102498.13;5064517;28;20007;-52
2022/09/22 00:21:11;;;;;;;;;;;;;;;19.02;49.14;102504.47;5064138;28;19913;-49
2022/09/22 00:23:37;;;;;;;;;;;;;;;19.03;49.08;102499.94;5057346;28;20008;-50
2022/09/22 00:26:03;;;;;;;;;;;;;;;19.02;49.19;102500.94;5064878;28;19996;-51
2022/09/22 00:28:28;;;;;;;;;;;;;;;19.01;49.21;102500.06;5064201;28;19909;-54
2022/09/22 00:30:54;;;;;;;;;;;;;;;19.01;49.08;102499.22;5063792;28;20014;-51
2022/09/22 00:33:19;;;;;;;;;;;;;;;19.00;49.02;102498.38;5064173;28;19916;-51
2022/09/22 00:35:44;;;;;;;;;;;;;;;18.99;48.98;102491.28;5063971;28;20472;-49
2022/09/22 00:38:10;;;;;;;;;;;;;;;19.00;48.95;102500.22;5062652;28;19917;-49
2022/09/22 00:40:35;;;;;;;;;;;;;;;18.98;48.82;102497.63;5064201;28;19913;-51
2022/09/22 00:43:29;;;;;;;;;;;;;;;18.98;48.94;102484.16;5064986;28;19909;-51
2022/09/22 00:45:57;;;;;;;;;;;;;;;18.97;48.83;102494.09;5054479;28;19935;-47
2022/09/22 00:48:23;;;;;;;;;;;;;;;18.95;48.86;102493.38;5096523;28;19972;-49
2022/09/22 00:50:49;;;;;;;;;;;;;;;18.96;48.87;102488.84;5063715;28;19908;-48
2022/09/22 00:53:14;;;;;;;;;;;;;;;18.94;49.00;102485.41;5062557;28;20176;-51
2022/09/22 00:55:41;;;;;;;;;;;;;;;18.94;48.87;102478.16;5096566;28;19924;-52
2022/09/22 00:58:08;;;;;;;;;;;;;;;18.93;48.94;102487.25;5061453;28;19924;-53
2022/09/22 01:00:33;;;;;;;;;;;;;;;18.93;48.71;102478.31;5062054;28;20011;-53
2022/09/22 01:02:58;;;;;;;;;;;;;;;18.93;48.97;102472.91;5063673;28;20543;-52
2022/09/22 01:05:24;;;;;;;;;;;;;;;18.92;48.89;102471.22;5062300;28;20451;-53
2022/09/22 01:07:50;;;;;;;;;;;;;;;18.90;48.94;102460.56;5063678;28;19912;-52
2022/09/22 01:10:15;;;;;;;;;;;;;;;18.91;48.72;102470.38;5062732;28;19912;-51
2022/09/22 01:12:41;;;;;;;;;;;;;;;18.90;48.75;102457.88;5063370;28;20428;-54
2022/09/22 01:15:13;;;;;;;;;;;;;;;18.89;49.03;102458.84;5061890;28;19912;-51
2022/09/22 01:17:48;;;;;;;;;;;;;;;18.88;48.94;102456.28;5063442;28;19916;-52
2022/09/22 01:20:23;;;;;;;;;;;;;;;18.87;48.62;102454.59;5095982;28;20437;-52
2022/09/22 01:22:48;;;;;;;;;;;;;;;18.87;48.72;102455.44;5063233;28;19909;-49
2022/09/22 01:25:16;;;;;;;;;;;;;;;18.87;48.52;102451.91;5063435;28;19911;-49
2022/09/22 01:27:54;;;;;;;;;;;;;;;18.86;48.58;102447.47;5062982;28;19909;-48
2022/09/22 01:30:22;;;;;;;;;;;;;;;18.85;48.64;102443.91;5059380;28;19913;-49
2022/09/22 01:32:56;;;;;;;;;;;;;;;18.84;48.73;102438.69;5063228;28;19912;-50
2022/09/22 01:35:31;;;;;;;;;;;;;;;18.84;48.60;102438.69;5095754;28;19912;-49
2022/09/22 01:38:08;;;;;;;;;;;;;;;18.83;48.56;102439.66;5095720;28;19934;-49
2022/09/22 01:40:35;;;;;;;;;;;;;;;18.82;48.63;102438.81;5063674;28;19959;-49
2022/09/22 01:43:12;;;;;;;;;;;;;;;18.82;48.94;102437.94;5062974;28;19962;-50
2022/09/22 01:45:37;;;;;;;;;;;;;;;18.80;48.80;102440.78;5061303;28;19934;-50
2022/09/22 01:48:09;;;;;;;;;;;;;;;18.80;48.77;102440.78;5061821;28;19912;-51
2022/09/22 01:50:35;;;;;;;;;;;;;;;18.79;48.59;102440.91;5062681;28;19916;-48
2022/09/22 01:53:03;;;;;;;;;;;;;;;18.79;48.58;102435.53;5062946;28;19910;-48
2022/09/22 01:55:30;;;;;;;;;;;;;;;18.77;48.56;102441.03;5061967;28;19909;-50
2022/09/22 01:57:56;;;;;;;;;;;;;;;18.76;48.59;102433.94;5061184;28;19970;-50
2022/09/22 02:00:22;;;;;;;;;;;;;;;18.76;48.64;102425.84;5060973;28;19948;-53
2022/09/22 02:02:50;;;;;;;;;;;;;;;18.76;48.62;102427.69;5062688;28;19909;-51
2022/09/22 02:05:17;;;;;;;;;;;;;;;18.75;48.72;102426.00;5063204;28;19973;-52
2022/09/22 02:07:44;;;;;;;;;;;;;;;18.74;48.77;102419.75;5062423;28;19909;-52
2022/09/22 02:10:12;;;;;;;;;;;;;;;18.73;48.84;102418.91;5061767;28;19922;-52
2022/09/22 02:12:37;;;;;;;;;;;;;;;18.73;48.70;102418.91;5062637;28;19935;-50
2022/09/22 02:15:03;;;;;;;;;;;;;;;18.72;48.69;102419.84;5062367;28;19917;-54
2022/09/22 02:17:28;;;;;;;;;;;;;;;18.72;48.83;102419.00;5061551;28;19920;-51
2022/09/22 02:19:53;;;;;;;;;;;;;;;18.71;48.53;102415.47;5062881;28;19958;-52
2022/09/22 02:22:19;;;;;;;;;;;;;;;18.70;48.54;102415.59;5094866;28;19955;-50
2022/09/22 02:24:44;;;;;;;;;;;;;;;18.69;48.49;102414.75;5094974;28;19913;-50
2022/09/22 02:27:24;;;;;;;;;;;;;;;18.69;48.67;102411.16;5062900;28;19909;-48
2022/09/22 02:29:51;;;;;;;;;;;;;;;18.67;48.62;102408.59;5093349;28;19912;-50
2022/09/22 02:32:16;;;;;;;;;;;;;;;18.66;48.43;102400.66;5094870;28;19912;-48
2022/09/22 02:34:44;;;;;;;;;;;;;;;18.66;48.63;102392.56;5094891;28;20354;-50
2022/09/22 02:37:32;;;;;;;;;;;;;;;18.65;48.58;102399.81;5061985;28;19916;-50
2022/09/22 02:40:16;;;;;;;;;;;;;;;18.64;48.68;102397.22;5020344;28;19916;-53
2022/09/22 02:42:46;;;;;;;;;;;;;;;18.64;48.70;102394.53;5013574;28;20409;-48
2022/09/22 02:45:12;;;;;;;;;;;;;;;18.62;48.60;102402.75;5009529;28;19956;-51
2022/09/22 02:47:43;;;;;;;;;;;;;;;18.63;48.51;102398.22;5003852;28;20079;-50
2022/09/22 02:50:09;;;;;;;;;;;;;;;18.61;48.56;102389.44;5020203;28;19909;-53
2022/09/22 02:52:35;;;;;;;;;;;;;;;18.61;48.53;102401.03;5003259;28;19951;-49
2022/09/22 02:55:01;;;;;;;;;;;;;;;18.61;48.34;102394.81;5020258;28;19909;-52
2022/09/22 02:57:26;;;;;;;;;;;;;;;18.59;48.34;102392.22;5008841;28;19925;-53
2022/09/22 02:59:51;;;;;;;;;;;;;;;18.59;48.38;102388.69;5010637;28;19913;-51
2022/09/22 03:02:16;;;;;;;;;;;;;;;18.58;48.37;102390.53;5019973;28;19989;-49
2022/09/22 03:04:41;;;;;;;;;;;;;;;18.58;48.58;102389.69;5019836;28;19977;-49
2022/09/22 03:07:07;;;;;;;;;;;;;;;18.57;48.50;102385.28;5019814;28;20008;-51
2022/09/22 03:09:32;;;;;;;;;;;;;;;18.56;48.35;102384.41;5020090;28;19910;-53
2022/09/22 03:11:57;;;;;;;;;;;;;;;18.55;48.45;102388.09;5020250;28;19947;-51
2022/09/22 03:14:22;;;;;;;;;;;;;;;18.55;48.38;102388.09;5018942;28;19913;-52
2022/09/22 03:16:48;;;;;;;;;;;;;;;18.54;48.60;102389.06;5047015;28;19985;-50
2022/09/22 03:19:13;;;;;;;;;;;;;;;18.53;48.47;102386.53;5060609;28;19931;-52
2022/09/22 03:21:38;;;;;;;;;;;;;;;18.53;48.60;102383.84;5062834;28;19917;-49
2022/09/22 03:24:03;;;;;;;;;;;;;;;18.51;48.55;102380.41;5065683;28;19916;-49
2022/09/22 03:26:28;;;;;;;;;;;;;;;18.51;48.45;102372.31;5065552;28;19908;-51
2022/09/22 03:28:54;;;;;;;;;;;;;;;18.50;48.56;102366.06;5065167;28;20110;-47
2022/09/22 03:31:19;;;;;;;;;;;;;;;18.50;48.35;102368.78;5065374;28;19915;-52
2022/09/22 03:33:44;;;;;;;;;;;;;;;18.49;48.52;102370.63;5065256;28;19913;-52
2022/09/22 03:36:09;;;;;;;;;;;;;;;18.47;48.31;102375.25;5065311;28;19909;-51
2022/09/22 03:38:35;;;;;;;;;;;;;;;18.48;48.34;102365.38;5065152;28;19921;-51
2022/09/22 03:41:01;;;;;;;;;;;;;;;18.47;48.61;102367.19;5065853;28;19955;-54
2022/09/22 03:43:26;;;;;;;;;;;;;;;18.47;48.29;102363.63;5077331;28;19961;-49
2022/09/22 03:45:55;;;;;;;;;;;;;;;18.46;48.38;102361.94;5065803;28;19915;-47
2022/09/22 03:48:20;;;;;;;;;;;;;;;18.44;48.46;102364.78;5065317;28;19963;-52
2022/09/22 03:50:45;;;;;;;;;;;;;;;18.44;48.39;102364.78;5065153;28;19912;-53
2022/09/22 03:53:10;;;;;;;;;;;;;;;18.43;48.31;102365.72;5064032;28;19916;-52
2022/09/22 03:55:36;;;;;;;;;;;;;;;18.42;48.13;102360.50;5065362;28;19924;-52
2022/09/22 03:58:02;;;;;;;;;;;;;;;18.42;48.51;102358.66;5065065;28;19996;-49
2022/09/22 04:00:28;;;;;;;;;;;;;;;18.42;48.50;102355.09;5064500;28;19915;-50
2022/09/22 04:02:53;;;;;;;;;;;;;;;18.41;48.47;102356.09;5065025;28;19908;-51
2022/09/22 04:05:18;;;;;;;;;;;;;;;18.41;48.24;102364.16;5064919;28;19947;-47
2022/09/22 04:07:43;;;;;;;;;;;;;;;18.40;48.26;102351.69;5064809;28;19962;-50
2022/09/22 04:10:09;;;;;;;;;;;;;;;18.38;48.32;102359.88;5065235;28;19913;-51
2022/09/22 04:12:36;;;;;;;;;;;;;;;18.37;48.21;102350.09;5064658;28;20026;-52
2022/09/22 04:15:01;;;;;;;;;;;;;;;18.36;48.49;102353.78;5064231;28;19909;-49
2022/09/22 04:17:26;;;;;;;;;;;;;;;18.36;48.31;102352.94;5064761;28;19972;-51
2022/09/22 04:19:52;;;;;;;;;;;;;;;18.36;48.42;102347.56;5064584;28;19913;-49
2022/09/22 04:22:17;;;;;;;;;;;;;;;18.35;48.52;102343.13;5064417;28;19916;-49
2022/09/22 04:24:43;;;;;;;;;;;;;;;18.33;48.25;102340.59;5064548;28;19909;-53
2022/09/22 04:27:08;;;;;;;;;;;;;;;18.34;48.51;102342.28;5064818;28;19932;-53
2022/09/22 04:29:33;;;;;;;;;;;;;;;18.33;48.26;102345.97;5063967;28;19910;-53
2022/09/22 04:31:58;;;;;;;;;;;;;;;18.34;48.35;102342.28;5064512;28;19908;-53
2022/09/22 04:34:23;;;;;;;;;;;;;;;18.33;48.18;102340.59;5064124;28;20036;-51
2022/09/22 04:36:49;;;;;;;;;;;;;;;18.32;48.33;102338.88;5071526;28;19959;-58
2022/09/22 04:39:14;;;;;;;;;;;;;;;18.33;48.39;102328.97;5059976;28;19963;-56
2022/09/22 04:41:39;;;;;;;;;;;;;;;18.32;48.51;102328.09;5063611;28;19908;-59
2022/09/22 04:44:04;;;;;;;;;;;;;;;18.32;48.69;102327.25;5065582;28;19976;-55
2022/09/22 04:46:29;;;;;;;;;;;;;;;18.32;48.50;102327.25;5063889;28;19912;-59
2022/09/22 04:48:55;;;;;;;;;;;;;;;18.32;48.86;102325.41;5063930;28;19916;-59
2022/09/22 04:51:20;;;;;;;;;;;;;;;18.32;48.79;102324.56;5062716;28;19916;-59
2022/09/22 04:53:45;;;;;;;;;;;;;;;18.32;48.71;102335.34;5063621;28;19913;-60
2022/09/22 04:56:10;;;;;;;;;;;;;;;18.33;48.85;102326.28;5059871;28;19915;-48
2022/09/22 04:58:35;;;;;;;;;;;;;;;18.32;48.66;102330.81;5063149;28;19917;-48
2022/09/22 05:01:02;;;;;;;;;;;;;;;18.33;48.54;102328.97;5059931;28;20285;-51
2022/09/22 05:03:27;;;;;;;;;;;;;;;18.32;48.49;102333.50;5055139;28;20145;-48
2022/09/22 05:05:52;;;;;;;;;;;;;;;18.32;48.56;102338.03;5060889;28;20402;-51
2022/09/22 05:08:17;;;;;;;;;;;;;;;18.31;48.61;102336.31;5057800;28;19913;-51
2022/09/22 05:10:44;;;;;;;;;;;;;;;18.31;48.51;102342.56;5058643;28;19921;-52
2022/09/22 05:13:11;;;;;;;;;;;;;;;18.29;48.52;102336.44;5063901;28;19930;-48
2022/09/22 05:15:36;;;;;;;;;;;;;;;18.30;48.46;102346.22;5060559;28;19984;-51
2022/09/22 05:18:01;;;;;;;;;;;;;;;18.29;48.54;102347.22;5051630;28;19912;-48
2022/09/22 05:20:27;;;;;;;;;;;;;;;18.30;48.75;102345.38;5054629;28;19963;-50
2022/09/22 05:22:52;;;;;;;;;;;;;;;18.29;48.59;102349.06;5059872;28;19940;-49
2022/09/22 05:25:17;;;;;;;;;;;;;;;18.29;48.74;102351.75;5054217;28;19943;-48
2022/09/22 05:27:46;;;;;;;;;;;;;;;18.29;48.61;102346.34;5061215;28;19971;-50
2022/09/22 05:30:12;;;;;;;;;;;;;;;18.29;48.88;102354.44;5061742;28;19916;-49
2022/09/22 05:32:37;;;;;;;;;;;;;;;18.28;49.02;102353.59;5063360;28;19916;-49
2022/09/22 05:35:02;;;;;;;;;;;;;;;18.29;49.04;102357.13;5057246;28;19913;-51
2022/09/22 05:37:27;;;;;;;;;;;;;;;18.28;48.80;102350.91;5055022;28;19912;-53
2022/09/22 05:39:53;;;;;;;;;;;;;;;18.28;49.11;102352.72;5062132;28;19912;-50
2022/09/22 05:42:19;;;;;;;;;;;;;;;18.28;48.79;102353.59;5052673;28;19913;-48
2022/09/22 05:44:44;;;;;;;;;;;;;;;18.28;48.76;102355.44;5047710;28;19909;-51
2022/09/22 05:47:09;;;;;;;;;;;;;;;18.29;49.05;102357.13;5061596;28;19915;-51
2022/09/22 05:49:34;;;;;;;;;;;;;;;18.28;49.03;102358.13;5053763;28;19912;-50
2022/09/22 05:51:59;;;;;;;;;;;;;;;18.27;49.07;102356.41;5052695;28;19913;-54
2022/09/22 05:54:25;;;;;;;;;;;;;;;18.27;48.92;102359.97;5057481;28;19913;-49
2022/09/22 05:56:50;;;;;;;;;;;;;;;18.28;49.13;102360.81;5063274;28;19923;-51
2022/09/22 05:59:15;;;;;;;;;;;;;;;18.28;48.96;102355.44;5064911;28;20459;-49
2022/09/22 06:01:41;;;;;;;;;;;;;;;18.28;49.22;102347.34;5063300;28;19956;-51
2022/09/22 06:04:06;;;;;;;;;;;;;;;18.28;49.27;102350.03;5062935;28;19909;-49
2022/09/22 06:06:31;;;;;;;;;;;;;;;18.28;49.01;102358.97;5063114;28;19915;-50
2022/09/22 06:08:56;;;;;;;;;;;;;;;18.28;49.02;102358.97;5063653;28;19908;-51
2022/09/22 06:11:22;;;;;;;;;;;;;;;18.28;48.99;102358.97;5063933;28;19908;-49
2022/09/22 06:13:50;;;;;;;;;;;;;;;18.28;49.21;102355.44;5063397;28;20373;-54
2022/09/22 06:16:15;;;;;;;;;;;;;;;18.28;49.34;102348.19;5063093;28;19916;-53
2022/09/22 06:18:40;;;;;;;;;;;;;;;18.28;49.02;102352.72;5063508;28;19923;-52
2022/09/22 06:21:07;;;;;;;;;;;;;;;18.28;49.09;102350.03;5095483;28;19909;-54
2022/09/22 06:23:32;;;;;;;;;;;;;;;18.26;49.19;102352.84;5063348;28;19908;-51
2022/09/22 06:25:57;;;;;;;;;;;;;;;18.27;48.88;102351.03;5063278;28;19920;-50
2022/09/22 06:28:23;;;;;;;;;;;;;;;18.27;48.82;102351.03;5060158;28;19919;-48
2022/09/22 06:30:50;;;;;;;;;;;;;;;18.28;48.80;102352.72;5053931;28;19916;-51
2022/09/22 06:33:16;;;;;;;;;;;;;;;18.28;48.73;102350.91;5058944;28;19920;-53
2022/09/22 06:35:41;;;;;;;;;;;;;;;18.27;48.88;102353.72;5058539;28;19912;-51
2022/09/22 06:38:07;;;;;;;;;;;;;;;18.28;49.07;102353.59;5061214;28;19959;-50
2022/09/22 06:40:35;;;;;;;;;;;;;;;18.29;48.91;102355.28;5061033;28;20277;-50
2022/09/22 06:43:13;;;;;;;;;;;;;;;18.29;48.91;102355.28;5070571;28;19919;-50
2022/09/22 06:45:39;;;;;;;;;;;;;;;18.29;48.95;102354.44;5063970;28;19908;-53
2022/09/22 06:48:04;;;;;;;;;;;;;;;18.30;48.86;102354.28;5062957;28;19913;-51
2022/09/22 06:50:32;;;;;;;;;;;;;;;18.30;48.86;102357.00;5062636;28;19908;-52
2022/09/22 06:53:01;;;;;;;;;;;;;;;18.31;48.78;102352.44;5063136;28;19915;-55
2022/09/22 06:55:27;;;;;;;;;;;;;;;18.31;48.68;102353.34;5063247;28;19913;-52
2022/09/22 06:57:52;;;;;;;;;;;;;;;18.30;48.70;102348.91;5065527;28;19948;-54
2022/09/22 07:00:17;;;;;;;;;;;;;;;18.30;48.84;102348.91;5066285;28;19948;-52
2022/09/22 07:02:42;;;;;;;;;;;;;;;18.31;48.68;102353.34;5064522;28;19909;-53
2022/09/22 07:05:07;;;;;;;;;;;;;;;18.31;48.74;102352.44;5066216;28;19908;-56
2022/09/22 07:07:33;;;;;;;;;;;;;;;18.31;48.74;102347.06;5066301;28;19909;-53
2022/09/22 07:09:58;;;;;;;;;;;;;;;18.31;48.77;102347.06;5066734;28;19908;-54
2022/09/22 07:12:24;;;;;;;;;;;;;;;18.31;49.00;102339.88;5066793;28;20291;-57
2022/09/22 07:14:51;;;;;;;;;;;;;;;18.31;48.79;102339.88;5065650;28;19908;-55
2022/09/22 07:17:16;;;;;;;;;;;;;;;18.32;48.75;102341.56;5066726;28;19915;-53
2022/09/22 07:19:42;;;;;;;;;;;;;;;18.32;48.69;102346.97;5066166;28;19960;-54
2022/09/22 07:22:07;;;;;;;;;;;;;;;18.33;48.91;102337.88;5066144;28;19916;-53
2022/09/22 07:24:32;;;;;;;;;;;;;;;18.33;48.93;102337.03;5066098;28;19915;-54
2022/09/22 07:27:03;;;;;;;;;;;;;;;18.33;48.82;102343.28;5066204;28;19909;-55
2022/09/22 07:29:28;;;;;;;;;;;;;;;18.33;48.82;102343.28;5065549;28;19919;-53
2022/09/22 07:31:55;;;;;;;;;;;;;;;18.34;48.87;102339.59;5066248;28;19944;-54
2022/09/22 07:34:20;;;;;;;;;;;;;;;18.35;48.57;102343.13;5065854;28;19913;-55
2022/09/22 07:36:47;;;;;;;;;;;;;;;18.35;48.78;102338.63;5065701;28;19909;-56
2022/09/22 07:39:13;;;;;;;;;;;;;;;18.36;48.60;102340.34;5066043;28;19912;-54
2022/09/22 07:41:41;;;;;;;;;;;;;;;18.37;48.83;102338.50;5066207;28;19915;-53
2022/09/22 07:46:51;;;;;;;;;;;;;;;18.40;48.55;102341.78;5066243;28;19943;-56
2022/09/22 07:49:18;;;;;;;;;;;;;;;18.39;48.68;102337.38;5064471;28;19909;-54
2022/09/22 07:51:43;;;;;;;;;;;;;;;18.40;48.74;102339.09;5065684;28;19912;-56
2022/09/22 07:54:09;;;;;;;;;;;;;;;18.41;48.66;102338.09;5065754;28;19982;-52
2022/09/22 07:56:35;;;;;;;;;;;;;;;18.42;48.78;102336.25;5065871;28;19918;-50
2022/09/22 07:59:03;;;;;;;;;;;;;;;18.45;48.70;102336.00;5065327;28;19924;-51
2022/09/22 08:01:30;;;;;;;;;;;;;;;18.46;48.63;102337.69;5065406;28;19908;-56
2022/09/22 08:03:56;;;;;;;;;;;;;;;18.45;48.52;102328.78;5097570;28;20460;-58
2022/09/22 08:06:22;;;;;;;;;;;;;;;18.47;48.63;102324.09;5065104;28;19908;-54
2022/09/22 08:08:52;;;;;;;;;;;;;;;18.48;48.71;102324.97;5065179;28;19909;-56
2022/09/22 08:11:18;;;;;;;;;;;;;;;18.51;48.61;102326.53;5065829;28;19915;-55
2022/09/22 08:13:49;;;;;;;;;;;;;;;18.52;48.73;102329.13;5065088;28;19947;-55
2022/09/22 08:16:17;;;;;;;;;;;;;;;18.55;48.56;102330.66;5064834;28;19919;-54
2022/09/22 08:18:42;;;;;;;;;;;;;;;18.57;48.57;102328.72;5065539;28;19963;-51
2022/09/22 08:21:07;;;;;;;;;;;;;;;18.61;48.34;102328.31;5065288;28;19913;-52
2022/09/22 08:23:33;;;;;;;;;;;;;;;18.65;48.25;102318.13;5058373;28;19939;-55
2022/09/22 08:26:08;;;;;;;;;;;;;;;18.67;48.42;102319.69;5061788;28;19927;-56
2022/09/22 08:28:33;;;;;;;;;;;;;;;18.69;48.61;102316.84;5062355;28;19909;-59
2022/09/22 08:30:58;;;;;;;;;;;;;;;18.69;48.07;102322.25;5064321;28;19912;-61
2022/09/22 08:33:25;;;;;;;;;;;;;;;18.68;48.32;102331.31;5064599;28;19931;-59
2022/09/22 08:35:52;;;;;;;;;;;;;;;18.68;48.61;102329.47;5064179;28;19908;-58
2022/09/22 08:38:17;;;;;;;;;;;;;;;18.67;48.55;102325.06;5064556;28;19916;-60
2022/09/22 08:40:42;;;;;;;;;;;;;;;18.66;48.52;102323.38;5060096;28;19962;-59
2022/09/22 08:43:08;;;;;;;;;;;;;;;18.66;48.65;102320.69;5088229;28;19920;-58
2022/09/22 08:45:34;;;;;;;;;;;;;;;18.67;48.52;102326.91;5092958;28;19916;-59
2022/09/22 08:53:33;;;;;;;;;;;;;;;18.71;48.85;102329.25;5061859;28;19976;-56
2022/09/22 08:56:02;;;;;;;;;;;;;;;18.73;48.79;102319.22;5092831;28;19913;-58
2022/09/22 08:58:27;;;;;;;;;;;;;;;18.76;48.72;102322.59;5064034;28;19917;-57
2022/09/22 09:00:55;;;;;;;;;;;;;;;18.79;48.54;102320.50;5063686;28;20029;-58
2022/09/22 09:03:56;;;;;;;;;;;;;;;18.81;48.60;102323.06;5052305;28;19912;-58
2022/09/22 09:06:24;;;;;;;;;;;;;;;18.84;48.70;102323.66;4982401;28;20037;-58
2022/09/22 09:08:59;;;;;;;;;;;;;;;18.86;48.54;102319.00;4977599;28;19914;-59
2022/09/22 09:11:30;;;;;;;;;;;;;;;18.88;48.38;102319.69;4973818;28;19914;-59
2022/09/22 09:13:58;;;;;;;;;;;;;;;18.92;48.41;102325.69;4960187;28;19910;-59
2022/09/22 09:16:42;;;;;;;;;;;;;;;18.94;48.64;102319.16;4982263;28;19918;-58
2022/09/22 09:19:34;;;;;;;;;;;;;;;18.96;48.51;102319.88;4982189;28;19914;-59
2022/09/22 09:22:00;;;;;;;;;;;;;;;18.99;48.52;102313.38;4978070;28;19910;-59
2022/09/22 09:24:28;;;;;;;;;;;;;;;19.00;48.51;102309.69;4966322;28;19943;-59
2022/09/22 09:26:57;;;;;;;;;;;;;;;19.02;48.27;102310.41;4982704;28;20087;-59
2022/09/22 09:29:23;;;;;;;;;;;;;;;19.04;48.33;102315.66;4960144;28;20379;-59
2022/09/22 09:31:52;;;;;;;;;;;;;;;19.06;48.13;102313.69;4966374;28;19910;-58
2022/09/22 09:34:19;;;;;;;;;;;;;;;19.06;48.35;102314.53;4982409;28;19909;-58
2022/09/22 09:36:45;;;;;;;;;;;;;;;19.08;48.30;102307.16;4981185;28;19910;-60
2022/09/22 09:39:31;;;;;;;;;;;;;;;19.09;48.31;102302.63;4967805;28;19925;-59
2022/09/22 09:41:56;;;;;;;;;;;;;;;19.11;48.41;102301.50;5061662;28;19919;-59
2022/09/22 09:44:31;;;;;;;;;;;;;;;19.14;48.20;102303.91;5066296;28;19956;-59
2022/09/22 09:47:10;;;;;;;;;;;;;;;19.15;48.36;102304.78;5062291;28;19956;-60
2022/09/22 09:49:35;;;;;;;;;;;;;;;19.17;48.42;102302.81;5050534;28;19916;-60
2022/09/22 09:52:01;;;;;;;;;;;;;;;19.18;48.31;102307.19;5063448;28;19963;-60
2022/09/22 09:54:26;;;;;;;;;;;;;;;19.18;48.43;102302.66;5086003;28;19919;-58
2022/09/22 09:57:07;;;;;;;;;;;;;;;19.20;48.41;102306.09;5063359;28;19917;-59
2022/09/22 10:02:19;;;;;;;;;;;;;;;19.23;48.25;102304.94;5062445;28;19931;-56
2022/09/22 10:04:51;;;;;;;;;;;;;;;19.24;48.37;102303.94;5062268;28;19955;-51
2022/09/22 10:07:40;;;;;;;;;;;;;;;19.25;48.32;102294.88;5061237;28;19944;-60
2022/09/22 10:10:41;;;;;;;;;;;;;;;19.26;48.21;102298.44;5052993;28;19920;-58
2022/09/22 10:13:06;;;;;;;;;;;;;;;19.28;48.33;102296.44;5025637;28;19913;-58
2022/09/22 10:15:32;;;;;;;;;;;;;;;19.29;48.30;102290.94;5025216;28;19909;-59
2022/09/22 10:17:57;;;;;;;;;;;;;;;19.30;48.32;102295.31;5020074;28;19949;-59
2022/09/22 10:20:27;;;;;;;;;;;;;;;19.31;48.52;102288.09;5014108;28;19910;-58
2022/09/22 10:22:52;;;;;;;;;;;;;;;19.33;48.49;102292.34;5020439;28;19914;-60
2022/09/22 10:25:30;;;;;;;;;;;;;;;19.35;48.18;102300.31;5019764;28;19972;-58
2022/09/22 10:28:08;;;;;;;;;;;;;;;19.38;48.41;102295.50;5019395;28;20023;-59
2022/09/22 10:30:36;;;;;;;;;;;;;;;19.40;48.47;102289.94;5021276;28;19909;-54
2022/09/22 10:33:04;;;;;;;;;;;;;;;19.41;48.31;102286.25;5024880;28;20488;-53
2022/09/22 10:35:31;;;;;;;;;;;;;;;19.44;48.53;102286.84;5024447;28;19913;-53
2022/09/22 10:37:57;;;;;;;;;;;;;;;19.44;48.30;102281.44;5024831;28;19964;-54
2022/09/22 10:40:23;;;;;;;;;;;;;;;19.47;48.43;102286.56;5008535;28;19913;-50
2022/09/22 10:42:49;;;;;;;;;;;;;;;19.47;48.54;102273.06;5015470;28;19909;-47
2022/09/22 10:45:15;;;;;;;;;;;;;;;19.50;48.82;102271.97;5013709;28;20406;-50
2022/09/22 10:47:53;;;;;;;;;;;;;;;19.51;48.83;102268.25;5056314;28;19916;-53
2022/09/22 10:50:27;;;;;;;;;;;;;;;19.52;49.04;102261.88;5061114;28;19976;-49
2022/09/22 10:53:01;;;;;;;;;;;;;;;19.55;48.69;102255.34;5057957;28;19943;-51
2022/09/22 10:55:31;;;;;;;;;;;;;;;19.57;48.91;102245.25;5084726;28;19920;-47
2022/09/22 10:58:08;;;;;;;;;;;;;;;19.60;49.13;102250.38;5061984;28;19928;-58
2022/09/22 11:00:34;;;;;;;;;;;;;;;19.62;48.83;102243.00;5059520;28;19908;-59
2022/09/22 11:03:02;;;;;;;;;;;;;;;19.63;48.79;102247.44;5064791;28;19923;-59
2022/09/22 11:14:07;;;;;;;;;;;;;;;19.72;48.74;102246.59;5066566;28;19920;-57
2022/09/22 11:16:39;;;;;;;;;;;;;;;19.75;48.91;102242.75;5057356;28;19928;-58
2022/09/22 11:19:08;;;;;;;;;;;;;;;19.78;48.76;102240.59;5091028;28;19913;-57
2022/09/22 11:21:48;;;;;;;;;;;;;;;19.80;48.74;102244.03;5066049;28;19931;-56
2022/09/22 11:24:36;;;;;;;;;;;;;;;19.82;48.85;102233.94;5062573;28;19919;-59
2022/09/22 11:27:01;;;;;;;;;;;;;;;19.85;48.96;102225.56;5065810;28;20000;-58
2022/09/22 11:29:29;;;;;;;;;;;;;;;19.88;48.86;102235.19;5064763;28;19909;-58
2022/09/22 11:32:07;;;;;;;;;;;;;;;19.90;49.07;102230.53;5066054;28;19905;-58
2022/09/22 11:34:44;;;;;;;;;;;;;;;19.92;49.12;102228.53;5063926;28;19913;-59
2022/09/22 11:37:24;;;;;;;;;;;;;;;19.94;49.08;102218.44;5051529;28;20483;-59
2022/09/22 11:39:53;;;;;;;;;;;;;;;19.95;48.83;102218.28;5066322;28;19920;-59
2022/09/22 11:42:42;;;;;;;;;;;;;;;19.99;48.94;102216.16;5064312;28;19909;-58
2022/09/22 11:45:23;;;;;;;;;;;;;;;20.03;48.87;102214.03;5057386;28;19999;-59
2022/09/22 11:47:48;;;;;;;;;;;;;;;20.05;48.91;102212.03;5066209;28;20306;-58
2022/09/22 11:50:22;;;;;;;;;;;;;;;20.06;49.11;102209.19;5066027;28;20358;-58
2022/09/22 11:52:54;;;;;;;;;;;;;;;20.08;48.82;102209.91;5065445;28;20545;-59
2022/09/22 11:55:22;;;;;;;;;;;;;;;20.11;49.17;102215.00;5098506;28;19958;-59
2022/09/22 11:57:49;;;;;;;;;;;;;;;20.13;49.24;102206.75;5065895;28;19943;-55
2022/09/22 12:00:17;;;;;;;;;;;;;;;20.15;48.78;102202.06;5097662;28;19912;-58
2022/09/22 12:02:53;;;;;;;;;;;;;;;20.14;49.21;102201.22;5065532;28;19909;-57
2022/09/22 12:05:37;;;;;;;;;;;;;;;20.15;48.98;102196.69;5097994;28;19916;-55
2022/09/22 12:08:06;;;;;;;;;;;;;;;20.17;49.04;102190.13;5065792;28;19908;-52
2022/09/22 12:10:36;;;;;;;;;;;;;;;20.19;49.08;102187.28;5098107;28;19915;-55
2022/09/22 12:13:03;;;;;;;;;;;;;;;20.21;48.85;102193.38;5065301;28;19912;-58
2022/09/22 12:15:36;;;;;;;;;;;;;;;20.21;48.72;102186.13;5060720;28;19913;-58
2022/09/22 12:18:08;;;;;;;;;;;;;;;20.21;48.56;102185.28;5091302;28;19912;-60
2022/09/22 12:20:36;;;;;;;;;;;;;;;20.24;48.65;102179.59;5062917;28;20003;-52
2022/09/22 12:23:11;;;;;;;;;;;;;;;20.26;48.93;102174.88;5061231;28;19992;-55
2022/09/22 12:26:08;;;;;;;;;;;;;;;20.30;48.64;102170.88;5064578;28;19916;-57
2022/09/22 12:28:36;;;;;;;;;;;;;;;20.36;48.89;102169.47;5041083;28;19929;-57
2022/09/22 12:31:05;;;;;;;;;;;;;;;20.42;48.54;102160.75;5084638;28;19999;-58
2022/09/22 12:33:31;;;;;;;;;;;;;;;20.47;48.50;102159.34;5065068;28;19916;-51
2022/09/22 12:35:56;;;;;;;;;;;;;;;20.53;48.61;102151.66;5063418;28;19912;-51
2022/09/22 12:38:21;;;;;;;;;;;;;;;20.55;48.36;102146.94;5065112;28;19909;-52
2022/09/22 12:40:47;;;;;;;;;;;;;;;20.59;48.41;102145.66;5065134;28;19913;-48
2022/09/22 12:43:19;;;;;;;;;;;;;;;20.61;48.51;102144.50;5064098;28;19909;-49
2022/09/22 12:45:45;;;;;;;;;;;;;;;20.65;48.25;102139.66;5064625;28;19915;-48
2022/09/22 12:48:15;;;;;;;;;;;;;;;20.69;48.39;102131.09;5065502;28;19936;-50
2022/09/22 12:50:41;;;;;;;;;;;;;;;20.75;48.23;102135.03;5064822;28;19980;-49
2022/09/22 12:53:15;;;;;;;;;;;;;;;20.79;48.02;102131.03;5065427;28;19917;-48
2022/09/22 12:55:40;;;;;;;;;;;;;;;20.84;48.04;102128.72;5065025;28;19936;-53
2022/09/22 12:58:26;;;;;;;;;;;;;;;20.88;47.95;102121.16;5064751;28;19917;-50
2022/09/22 13:00:52;;;;;;;;;;;;;;;20.92;48.06;102123.41;5063354;28;19924;-51